createdAt,value
2023-03-28T00:00:30.876Z,0.40
2023-03-28T00:02:32.621Z,0.30
2023-03-28T00:04:34.751Z,0.30
2023-03-28T00:06:38.485Z,0.30
2023-03-28T00:08:40.758Z,0.30
2023-03-28T00:10:42.597Z,0.40
2023-03-28T00:12:44.303Z,0.55
2023-03-28T00:14:46.349Z,0.32
2023-03-28T00:16:48.224Z,0.73
2023-03-28T00:18:51.072Z,0.40
2023-03-28T00:20:53.728Z,0.60
2023-03-28T00:22:56.363Z,0.40
2023-03-28T00:25:01.092Z,0.28
2023-03-28T00:27:02.816Z,0.50
2023-03-28T00:29:06.969Z,0.50
2023-03-28T00:31:08.967Z,0.40
2023-03-28T00:33:11.590Z,0.35
2023-03-28T00:35:13.999Z,0.30
2023-03-28T00:37:17.486Z,0.55
2023-03-28T00:39:19.272Z,0.30
2023-03-28T00:41:22.551Z,0.30
2023-03-28T00:43:37.753Z,0.30
2023-03-28T00:45:39.738Z,0.40
2023-03-28T00:47:51.792Z,0.52
2023-03-28T00:50:14.668Z,0.43
2023-03-28T00:52:18.120Z,0.45
2023-03-28T00:54:21.063Z,0.40
2023-03-28T00:56:25.505Z,0.30
2023-03-28T00:58:32.059Z,0.40
2023-03-28T01:00:34.999Z,0.45
2023-03-28T01:02:36.984Z,0.30
2023-03-28T01:04:49.544Z,0.40
2023-03-28T01:06:57.264Z,0.40
2023-03-28T01:09:00.963Z,0.30
2023-03-28T01:11:03.442Z,0.40
2023-03-28T01:13:05.856Z,0.43
2023-03-28T01:15:09.035Z,0.63
2023-03-28T01:17:10.992Z,0.52
2023-03-28T01:19:22.066Z,0.60
2023-03-28T01:21:32.733Z,0.50
2023-03-28T01:24:12.624Z,0.40
2023-03-28T01:26:42.332Z,0.45
2023-03-28T01:29:04.900Z,0.90
2023-03-28T01:31:22.570Z,0.38
2023-03-28T01:33:42.792Z,0.50
2023-03-28T01:36:10.727Z,0.30
2023-03-28T01:38:41.681Z,0.32
2023-03-28T01:43:35.609Z,0.40
2023-03-28T01:45:37.266Z,0.47
2023-03-28T01:48:02.035Z,0.30
2023-03-28T01:50:23.092Z,0.50
2023-03-28T01:54:41.345Z,0.30
2023-03-28T01:56:47.314Z,0.20
2023-03-28T01:58:51.912Z,0.40
2023-03-28T02:01:02.635Z,0.30
2023-03-28T02:03:26.586Z,0.30
2023-03-28T02:05:32.551Z,0.40
2023-03-28T02:07:35.034Z,0.38
2023-03-28T02:09:38.922Z,0.40
2023-03-28T02:11:42.120Z,0.30
2023-03-28T02:13:47.306Z,0.30
2023-03-28T02:16:03.237Z,0.32
2023-03-28T02:18:10.318Z,0.30
2023-03-28T02:20:17.133Z,0.43
2023-03-28T02:22:47.966Z,0.30
2023-03-28T02:24:52.019Z,0.30
2023-03-28T02:26:55.129Z,0.30
2023-03-28T02:28:58.379Z,0.40
2023-03-28T02:31:01.731Z,0.30
2023-03-28T02:33:06.355Z,0.45
2023-03-28T02:35:09.221Z,0.40
2023-03-28T02:37:17.076Z,0.30
2023-03-28T02:39:26.332Z,0.30
2023-03-28T02:41:33.989Z,0.32
2023-03-28T02:43:52.576Z,0.30
2023-03-28T02:46:22.436Z,0.35
2023-03-28T02:48:51.424Z,0.50
2023-03-28T02:51:25.321Z,0.32
2023-03-28T02:53:51.678Z,0.30
2023-03-28T02:56:06.603Z,0.50
2023-03-28T02:58:21.334Z,0.32
2023-03-28T03:00:23.426Z,0.20
2023-03-28T03:02:25.230Z,0.40
2023-03-28T03:04:26.994Z,0.47
2023-03-28T03:06:28.686Z,0.30
2023-03-28T03:08:31.142Z,0.35
2023-03-28T03:10:32.936Z,0.32
2023-03-28T03:12:36.078Z,0.40
2023-03-28T03:14:39.062Z,1.00
2023-03-28T03:16:43.230Z,0.38
2023-03-28T03:18:44.977Z,0.65
2023-03-28T03:20:46.617Z,0.60
2023-03-28T03:22:48.339Z,0.40
2023-03-28T03:24:51.216Z,0.70
2023-03-28T03:26:53.188Z,0.30
2023-03-28T03:28:55.368Z,0.60
2023-03-28T03:30:57.163Z,0.30
2023-03-28T03:33:00.772Z,0.57
2023-03-28T03:35:02.873Z,0.38
2023-03-28T03:37:04.778Z,0.40
2023-03-28T03:39:06.537Z,0.20
2023-03-28T03:41:08.337Z,0.35
2023-03-28T03:43:10.038Z,0.40
2023-03-28T03:45:12.000Z,0.40
2023-03-28T03:47:13.907Z,0.70
2023-03-28T03:49:15.648Z,1.10
2023-03-28T03:51:18.026Z,0.77
2023-03-28T03:53:19.725Z,0.43
2023-03-28T03:55:21.416Z,0.60
2023-03-28T03:57:23.124Z,0.40
2023-03-28T03:59:24.926Z,0.50
2023-03-28T04:01:30.308Z,0.55
2023-03-28T04:03:33.960Z,1.27
2023-03-28T04:05:35.719Z,0.50
2023-03-28T04:07:37.532Z,0.70
2023-03-28T04:09:39.483Z,0.45
2023-03-28T04:11:41.236Z,0.68
2023-03-28T04:13:42.996Z,0.65
2023-03-28T04:15:54.078Z,0.68
2023-03-28T04:17:57.083Z,0.40
2023-03-28T04:19:58.818Z,0.40
2023-03-28T04:22:00.527Z,0.45
2023-03-28T04:24:02.658Z,0.45
2023-03-28T04:26:04.560Z,0.40
2023-03-28T04:28:06.184Z,0.65
2023-03-28T04:30:09.686Z,0.40
2023-03-28T04:32:13.028Z,0.70
2023-03-28T04:34:16.037Z,0.43
2023-03-28T04:36:18.471Z,0.30
2023-03-28T04:38:21.799Z,0.73
2023-03-28T04:40:25.046Z,0.50
2023-03-28T04:42:26.808Z,0.40
2023-03-28T04:44:29.653Z,0.52
2023-03-28T04:46:31.664Z,0.47
2023-03-28T04:48:33.425Z,0.50
2023-03-28T04:50:35.966Z,0.70
2023-03-28T04:52:37.927Z,0.70
2023-03-28T04:54:39.618Z,0.50
2023-03-28T04:56:41.607Z,0.68
2023-03-28T04:58:43.443Z,0.60
2023-03-28T05:00:48.377Z,1.13
2023-03-28T05:02:55.073Z,0.60
2023-03-28T05:04:56.789Z,0.80
2023-03-28T05:06:58.470Z,0.55
2023-03-28T05:09:01.026Z,0.60
2023-03-28T05:11:02.857Z,0.98
2023-03-28T05:13:05.101Z,0.50
2023-03-28T05:15:07.296Z,0.60
2023-03-28T05:17:09.055Z,0.60
2023-03-28T05:19:10.834Z,0.90
2023-03-28T05:21:12.555Z,0.75
2023-03-28T05:23:14.387Z,0.80
2023-03-28T05:25:16.472Z,0.57
2023-03-28T05:27:18.158Z,0.60
2023-03-28T05:29:19.832Z,0.75
2023-03-28T05:31:21.681Z,1.10
2023-03-28T05:33:23.427Z,0.60
2023-03-28T05:35:25.284Z,0.68
2023-03-28T05:37:28.676Z,0.65
2023-03-28T05:39:30.612Z,1.00
2023-03-28T05:41:32.284Z,0.75
2023-03-28T05:43:33.971Z,0.73
2023-03-28T05:45:35.991Z,0.60
2023-03-28T05:47:37.702Z,0.50
2023-03-28T05:49:39.394Z,0.88
2023-03-28T05:51:41.068Z,0.57
2023-03-28T05:53:43.712Z,0.80
2023-03-28T05:55:46.803Z,1.48
2023-03-28T05:57:48.684Z,0.70
2023-03-28T05:59:50.586Z,0.82
2023-03-28T06:01:52.871Z,1.25
2023-03-28T06:03:55.399Z,1.52
2023-03-28T06:05:57.375Z,1.00
2023-03-28T06:07:59.241Z,1.10
2023-03-28T06:10:01.894Z,0.88
2023-03-28T06:12:05.161Z,1.40
2023-03-28T06:14:07.499Z,1.13
2023-03-28T06:16:09.433Z,0.88
2023-03-28T06:18:11.369Z,1.45
2023-03-28T06:20:13.469Z,1.10
2023-03-28T06:22:15.344Z,0.80
2023-03-28T06:24:17.443Z,2.05
2023-03-28T06:26:19.675Z,1.05
2023-03-28T06:28:21.578Z,1.15
2023-03-28T06:30:23.290Z,1.50
2023-03-28T06:32:25.281Z,0.80
2023-03-28T06:34:27.331Z,1.20
2023-03-28T06:36:29.136Z,1.17
2023-03-28T06:38:31.170Z,1.13
2023-03-28T06:40:33.134Z,0.80
2023-03-28T06:42:34.854Z,1.08
2023-03-28T06:44:36.625Z,2.35
2023-03-28T06:46:39.122Z,1.23
2023-03-28T06:48:40.939Z,1.55
2023-03-28T06:50:50.178Z,1.45
2023-03-28T06:52:51.953Z,1.30
2023-03-28T06:54:53.662Z,1.52
2023-03-28T06:56:55.713Z,1.38
2023-03-28T06:58:57.389Z,1.85
2023-03-28T07:01:00.325Z,1.35
2023-03-28T07:03:02.425Z,1.83
2023-03-28T07:05:04.355Z,1.67
2023-03-28T07:07:20.266Z,1.40
2023-03-28T07:09:22.051Z,2.03
2023-03-28T07:11:23.919Z,2.33
2023-03-28T07:13:26.047Z,1.55
2023-03-28T07:15:27.763Z,1.75
2023-03-28T07:17:29.483Z,1.60
2023-03-28T07:19:31.344Z,1.83
2023-03-28T07:21:33.042Z,1.50
2023-03-28T07:23:35.463Z,1.65
2023-03-28T07:25:37.187Z,1.73
2023-03-28T07:27:39.061Z,2.20
2023-03-28T07:29:40.734Z,1.70
2023-03-28T07:31:42.848Z,2.30
2023-03-28T07:33:44.574Z,1.80
2023-03-28T07:35:51.191Z,1.80
2023-03-28T07:37:52.904Z,1.48
2023-03-28T07:39:56.682Z,1.80
2023-03-28T07:41:58.406Z,2.05
2023-03-28T07:44:00.483Z,1.73
2023-03-28T07:46:08.240Z,2.25
2023-03-28T07:48:10.129Z,2.63
2023-03-28T07:50:12.316Z,2.22
2023-03-28T07:52:14.578Z,2.63
2023-03-28T07:54:17.958Z,1.77
2023-03-28T07:56:22.574Z,1.63
2023-03-28T07:58:24.494Z,2.63
2023-03-28T08:00:27.718Z,2.15
2023-03-28T08:02:29.497Z,1.85
2023-03-28T08:04:31.501Z,2.35
2023-03-28T08:06:34.221Z,2.10
2023-03-28T08:08:36.669Z,2.08
2023-03-28T08:10:38.380Z,2.17
2023-03-28T08:12:40.083Z,2.38
2023-03-28T08:14:41.997Z,2.28
2023-03-28T08:16:45.421Z,2.70
2023-03-28T08:18:54.393Z,1.92
2023-03-28T08:21:03.432Z,2.95
2023-03-28T08:23:06.294Z,1.98
2023-03-28T08:25:09.480Z,2.03
2023-03-28T08:27:11.758Z,2.45
2023-03-28T08:29:13.586Z,1.75
2023-03-28T08:31:17.119Z,2.90
2023-03-28T08:33:19.130Z,2.35
2023-03-28T08:35:20.983Z,2.03
2023-03-28T08:37:22.697Z,2.42
2023-03-28T08:39:24.505Z,2.30
2023-03-28T08:41:41.167Z,2.10
2023-03-28T08:43:57.240Z,1.85
2023-03-28T08:46:01.407Z,2.10
2023-03-28T08:48:08.203Z,3.05
2023-03-28T08:50:23.927Z,2.53
2023-03-28T08:52:26.486Z,2.53
2023-03-28T08:54:44.847Z,2.35
2023-03-28T08:56:51.446Z,2.25
2023-03-28T08:59:11.289Z,2.65
2023-03-28T09:01:13.402Z,2.75
2023-03-28T09:03:20.022Z,3.33
2023-03-28T09:06:04.856Z,2.30
2023-03-28T09:08:20.080Z,2.42
2023-03-28T09:10:34.103Z,2.58
2023-03-28T09:12:52.354Z,2.55
2023-03-28T09:15:16.379Z,2.45
2023-03-28T09:17:27.387Z,2.05
2023-03-28T09:19:53.833Z,1.85
2023-03-28T09:22:14.724Z,1.67
2023-03-28T09:24:29.860Z,2.55
2023-03-28T09:26:38.907Z,1.83
2023-03-28T09:28:52.702Z,2.53
2023-03-28T09:30:57.617Z,1.75
2023-03-28T09:33:03.332Z,1.65
2023-03-28T09:35:17.029Z,1.83
2023-03-28T09:37:39.397Z,1.58
2023-03-28T09:39:49.559Z,2.20
2023-03-28T09:42:12.568Z,1.63
2023-03-28T09:44:16.967Z,1.58
2023-03-28T09:46:30.330Z,1.13
2023-03-28T09:48:36.572Z,1.20
2023-03-28T09:50:38.290Z,1.20
2023-03-28T09:52:40.548Z,1.77
2023-03-28T09:54:42.444Z,1.35
2023-03-28T09:56:45.745Z,1.67
2023-03-28T09:59:05.200Z,1.23
2023-03-28T10:01:30.666Z,1.77
2023-03-28T10:03:33.075Z,1.30
2023-03-28T10:05:37.042Z,1.65
2023-03-28T10:07:44.817Z,1.00
2023-03-28T10:09:51.139Z,0.75
2023-03-28T10:11:59.388Z,2.38
2023-03-28T10:14:01.796Z,1.00
2023-03-28T10:16:06.366Z,1.30
2023-03-28T10:18:08.428Z,1.05
2023-03-28T10:20:32.876Z,1.50
2023-03-28T10:22:37.702Z,1.13
2023-03-28T10:24:40.816Z,1.30
2023-03-28T10:26:42.676Z,1.00
2023-03-28T10:28:44.585Z,1.00
2023-03-28T10:30:53.831Z,1.10
2023-03-28T10:33:17.749Z,0.80
2023-03-28T10:35:26.601Z,1.60
2023-03-28T10:37:31.951Z,1.10
2023-03-28T10:39:33.806Z,1.00
2023-03-28T10:41:35.533Z,1.10
2023-03-28T10:43:42.225Z,1.23
2023-03-28T10:45:59.815Z,1.02
2023-03-28T10:48:08.070Z,1.05
2023-03-28T10:50:25.664Z,0.90
2023-03-28T10:52:30.241Z,0.70
2023-03-28T10:54:46.823Z,0.88
2023-03-28T10:57:09.012Z,0.90
2023-03-28T10:59:56.188Z,0.65
2023-03-28T11:02:12.886Z,1.25
2023-03-28T11:04:24.384Z,1.00
2023-03-28T11:07:18.216Z,1.15
2023-03-28T11:09:31.856Z,0.73
2023-03-28T11:11:59.266Z,0.80
2023-03-28T11:14:15.757Z,0.85
2023-03-28T11:16:44.228Z,0.80
2023-03-28T11:19:18.571Z,1.15
2023-03-28T11:21:41.049Z,1.10
2023-03-28T11:23:51.521Z,0.60
2023-03-28T11:26:20.879Z,1.00
2023-03-28T11:28:37.027Z,1.20
2023-03-28T11:30:42.693Z,0.90
2023-03-28T11:33:19.472Z,0.60
2023-03-28T11:35:32.787Z,0.70
2023-03-28T11:37:44.401Z,0.90
2023-03-28T11:40:03.605Z,0.75
2023-03-28T11:44:31.770Z,0.80
2023-03-28T11:46:39.287Z,0.55
2023-03-28T11:49:01.245Z,1.00
2023-03-28T11:51:06.647Z,1.08
2023-03-28T11:53:16.660Z,0.90
2023-03-28T11:55:27.745Z,0.60
2023-03-28T11:57:35.835Z,0.93
2023-03-28T11:59:37.626Z,0.88
2023-03-28T12:01:49.758Z,0.90
2023-03-28T12:04:10.030Z,1.00
2023-03-28T12:06:27.152Z,1.05
2023-03-28T12:08:36.239Z,1.13
2023-03-28T12:10:38.300Z,1.90
2023-03-28T12:12:59.729Z,1.15
2023-03-28T12:15:18.156Z,0.93
2023-03-28T12:17:45.398Z,1.00
2023-03-28T12:19:48.692Z,0.95
2023-03-28T12:21:57.225Z,1.10
2023-03-28T12:23:59.658Z,0.90
2023-03-28T12:26:32.534Z,1.00
2023-03-28T12:28:43.581Z,1.40
2023-03-28T12:30:56.786Z,1.10
2023-03-28T12:33:24.990Z,1.02
2023-03-28T12:35:54.925Z,0.90
2023-03-28T12:38:32.410Z,1.00
2023-03-28T12:41:07.513Z,1.10
2023-03-28T12:43:14.999Z,1.65
2023-03-28T12:45:29.553Z,1.08
2023-03-28T12:47:37.702Z,1.08
2023-03-28T12:49:45.615Z,1.00
2023-03-28T12:51:52.186Z,1.20
2023-03-28T12:54:21.814Z,0.90
2023-03-28T12:56:23.694Z,0.90
2023-03-28T12:58:33.716Z,1.00
2023-03-28T13:00:57.034Z,1.07
2023-03-28T13:03:08.204Z,1.25
2023-03-28T13:05:32.082Z,0.88
2023-03-28T13:08:06.838Z,1.00
2023-03-28T13:10:50.976Z,1.33
2023-03-28T13:13:11.294Z,0.93
2023-03-28T13:15:12.953Z,1.30
2023-03-28T13:17:26.406Z,0.90
2023-03-28T13:19:46.631Z,1.08
2023-03-28T13:21:56.592Z,0.90
2023-03-28T13:23:58.304Z,0.57
2023-03-28T13:26:02.824Z,1.27
2023-03-28T13:28:11.217Z,0.85
2023-03-28T13:30:22.151Z,1.00
2023-03-28T13:34:33.954Z,1.20
2023-03-28T13:36:36.117Z,1.08
2023-03-28T13:38:55.795Z,2.05
2023-03-28T13:41:06.437Z,1.00
2023-03-28T13:43:28.291Z,1.30
2023-03-28T13:45:30.122Z,1.05
2023-03-28T13:47:40.346Z,0.90
2023-03-28T13:49:49.835Z,1.88
2023-03-28T13:52:00.428Z,1.00
2023-03-28T13:54:02.215Z,0.80
2023-03-28T13:56:09.471Z,1.00
2023-03-28T13:58:13.431Z,1.10
2023-03-28T14:00:20.628Z,1.13
2023-03-28T14:02:46.174Z,1.42
2023-03-28T14:05:06.038Z,1.80
2023-03-28T14:07:13.331Z,1.23
2023-03-28T14:09:29.688Z,0.98
2023-03-28T14:11:41.841Z,1.33
2023-03-28T14:13:44.547Z,1.08
2023-03-28T14:16:00.196Z,0.98
2023-03-28T14:18:03.666Z,0.90
2023-03-28T14:20:07.627Z,1.15
2023-03-28T14:22:18.635Z,0.90
2023-03-28T14:24:26.923Z,1.00
2023-03-28T14:26:32.236Z,1.00
2023-03-28T14:28:34.410Z,1.20
2023-03-28T14:30:41.247Z,1.00
2023-03-28T14:32:57.456Z,0.95
2023-03-28T14:35:18.952Z,1.30
2023-03-28T14:37:22.804Z,1.13
2023-03-28T14:39:26.719Z,1.20
2023-03-28T14:41:32.538Z,0.93
2023-03-28T14:43:34.931Z,0.98
2023-03-28T14:45:52.896Z,1.20
2023-03-28T14:47:56.416Z,0.90
2023-03-28T14:50:00.771Z,0.90
2023-03-28T14:52:03.934Z,0.90
2023-03-28T14:54:05.916Z,0.70
2023-03-28T14:56:11.261Z,0.80
2023-03-28T14:58:14.023Z,1.00
2023-03-28T15:00:22.224Z,1.23
2023-03-28T15:02:34.018Z,0.93
2023-03-28T15:04:36.871Z,1.25
2023-03-28T15:06:39.552Z,1.02
2023-03-28T15:08:42.038Z,1.10
2023-03-28T15:10:51.077Z,1.15
2023-03-28T15:13:04.587Z,0.80
2023-03-28T15:15:07.610Z,0.90
2023-03-28T15:17:18.954Z,1.02
2023-03-28T15:19:27.218Z,1.00
2023-03-28T15:21:28.978Z,1.00
2023-03-28T15:23:49.345Z,1.27
2023-03-28T15:26:03.336Z,0.85
2023-03-28T15:28:10.622Z,0.90
2023-03-28T15:30:17.156Z,1.00
2023-03-28T15:32:20.666Z,0.85
2023-03-28T15:34:29.058Z,1.05
2023-03-28T15:36:32.565Z,1.08
2023-03-28T15:38:41.284Z,0.93
2023-03-28T15:40:48.993Z,1.00
2023-03-28T15:42:51.367Z,1.67
2023-03-28T15:44:58.968Z,1.10
2023-03-28T15:47:07.284Z,0.90
2023-03-28T15:49:11.428Z,0.88
2023-03-28T15:51:18.985Z,1.45
2023-03-28T15:53:22.373Z,1.00
2023-03-28T15:55:27.116Z,1.35
2023-03-28T15:57:30.670Z,0.90
2023-03-28T15:59:42.456Z,1.17
2023-03-28T16:01:44.541Z,0.90
2023-03-28T16:03:46.706Z,1.55
2023-03-28T16:06:01.798Z,0.70
2023-03-28T16:08:34.293Z,1.35
2023-03-28T16:10:37.752Z,1.30
2023-03-28T16:12:40.570Z,1.20
2023-03-28T16:14:47.089Z,0.90
2023-03-28T16:16:58.309Z,0.90
2023-03-28T16:19:03.450Z,0.90
2023-03-28T16:21:05.448Z,0.80
2023-03-28T16:23:08.107Z,0.73
2023-03-28T16:25:09.972Z,1.25
2023-03-28T16:27:11.786Z,0.82
2023-03-28T16:29:13.895Z,1.13
2023-03-28T16:31:15.893Z,1.00
2023-03-28T16:33:19.886Z,0.88
2023-03-28T16:35:22.806Z,0.80
2023-03-28T16:37:24.724Z,0.80
2023-03-28T16:39:26.708Z,0.55
2023-03-28T16:41:28.453Z,1.50
2023-03-28T16:43:30.432Z,0.73
2023-03-28T16:45:32.466Z,1.40
2023-03-28T16:47:34.128Z,1.13
2023-03-28T16:49:35.979Z,1.00
2023-03-28T16:51:38.169Z,0.80
2023-03-28T16:53:40.497Z,1.00
2023-03-28T16:55:50.882Z,1.00
2023-03-28T16:57:52.627Z,0.85
2023-03-28T16:59:54.411Z,0.85
2023-03-28T17:01:56.192Z,1.13
2023-03-28T17:03:58.152Z,1.05
2023-03-28T17:06:05.534Z,1.52
2023-03-28T17:08:07.453Z,1.00
2023-03-28T17:10:10.042Z,1.10
2023-03-28T17:12:11.806Z,1.15
2023-03-28T17:14:13.573Z,1.17
2023-03-28T17:16:15.394Z,1.73
2023-03-28T17:18:17.357Z,1.02
2023-03-28T17:20:19.747Z,1.40
2023-03-28T17:22:21.499Z,0.90
2023-03-28T17:24:24.087Z,0.82
2023-03-28T17:26:26.464Z,1.52
2023-03-28T17:28:29.314Z,1.50
2023-03-28T17:30:32.195Z,1.02
2023-03-28T17:32:34.427Z,1.55
2023-03-28T17:34:36.709Z,1.88
2023-03-28T17:36:38.413Z,1.10
2023-03-28T17:38:40.297Z,1.52
2023-03-28T17:40:49.131Z,1.23
2023-03-28T17:42:51.331Z,0.80
2023-03-28T17:44:54.691Z,1.33
2023-03-28T17:46:57.656Z,1.05
2023-03-28T17:48:59.514Z,1.40
2023-03-28T17:51:01.239Z,1.30
2023-03-28T17:53:03.228Z,1.83
2023-03-28T17:55:06.362Z,1.83
2023-03-28T17:57:08.442Z,1.40
2023-03-28T17:59:11.730Z,1.98
2023-03-28T18:01:16.806Z,1.08
2023-03-28T18:03:18.668Z,1.48
2023-03-28T18:05:22.455Z,1.10
2023-03-28T18:07:24.719Z,1.08
2023-03-28T18:09:27.524Z,1.35
2023-03-28T18:11:29.208Z,1.13
2023-03-28T18:13:31.432Z,1.20
2023-03-28T18:15:33.574Z,1.27
2023-03-28T18:17:35.416Z,0.98
2023-03-28T18:19:37.267Z,2.60
2023-03-28T18:21:39.027Z,1.70
2023-03-28T18:23:41.584Z,1.23
2023-03-28T18:25:56.593Z,1.10
2023-03-28T18:27:58.428Z,1.20
2023-03-28T18:30:08.139Z,1.58
2023-03-28T18:32:09.880Z,1.20
2023-03-28T18:34:11.983Z,1.30
2023-03-28T18:36:14.538Z,1.35
2023-03-28T18:38:16.416Z,1.10
2023-03-28T18:40:18.682Z,1.30
2023-03-28T18:42:20.385Z,1.70
2023-03-28T18:44:22.362Z,1.42
2023-03-28T18:46:29.837Z,2.25
2023-03-28T18:48:31.904Z,1.48
2023-03-28T18:50:33.892Z,2.15
2023-03-28T18:52:36.216Z,1.33
2023-03-28T18:54:38.542Z,1.40
2023-03-28T18:56:40.459Z,1.20
2023-03-28T18:58:42.211Z,2.03
2023-03-28T19:00:44.053Z,1.52
2023-03-28T19:02:47.951Z,1.30
2023-03-28T19:04:49.884Z,1.60
2023-03-28T19:06:52.587Z,1.65
2023-03-28T19:08:54.943Z,2.00
2023-03-28T19:10:59.205Z,1.30
2023-03-28T19:13:01.083Z,1.60
2023-03-28T19:15:04.585Z,2.13
2023-03-28T19:17:07.336Z,1.67
2023-03-28T19:19:09.041Z,2.15
2023-03-28T19:21:11.989Z,2.53
2023-03-28T19:23:14.241Z,1.92
2023-03-28T19:25:16.420Z,1.67
2023-03-28T19:27:18.153Z,1.90
2023-03-28T19:29:19.940Z,2.22
2023-03-28T19:31:25.663Z,1.48
2023-03-28T19:33:28.672Z,1.90
2023-03-28T19:35:30.529Z,1.70
2023-03-28T19:37:32.313Z,1.77
2023-03-28T19:39:33.949Z,1.77
2023-03-28T19:41:36.684Z,1.45
2023-03-28T19:43:38.454Z,1.88
2023-03-28T19:45:41.432Z,1.55
2023-03-28T19:47:43.147Z,2.63
2023-03-28T19:49:46.482Z,1.73
2023-03-28T19:51:48.417Z,1.50
2023-03-28T19:53:50.283Z,1.80
2023-03-28T19:55:58.885Z,2.15
2023-03-28T19:58:02.536Z,2.47
2023-03-28T20:00:06.592Z,2.03
2023-03-28T20:02:12.400Z,1.50
2023-03-28T20:04:14.727Z,2.50
2023-03-28T20:06:17.175Z,1.77
2023-03-28T20:08:19.190Z,2.20
2023-03-28T20:10:21.959Z,2.10
2023-03-28T20:12:24.058Z,1.90
2023-03-28T20:14:25.876Z,2.60
2023-03-28T20:16:27.675Z,2.08
2023-03-28T20:18:29.814Z,2.38
2023-03-28T20:20:32.017Z,1.73
2023-03-28T20:22:35.295Z,2.45
2023-03-28T20:24:37.527Z,1.85
2023-03-28T20:26:39.997Z,2.55
2023-03-28T20:28:41.950Z,2.40
2023-03-28T20:30:47.687Z,2.42
2023-03-28T20:32:51.032Z,2.35
2023-03-28T20:34:52.740Z,2.72
2023-03-28T20:36:56.828Z,1.83
2023-03-28T20:39:01.128Z,2.45
2023-03-28T20:41:03.161Z,2.40
2023-03-28T20:43:05.212Z,2.42
2023-03-28T20:45:09.154Z,1.88
2023-03-28T20:47:11.552Z,2.13
2023-03-28T20:49:13.736Z,2.15
2023-03-28T20:51:22.998Z,2.17
2023-03-28T20:53:25.237Z,2.47
2023-03-28T20:55:29.612Z,2.85
2023-03-28T20:57:31.939Z,2.42
2023-03-28T20:59:34.842Z,3.55
2023-03-28T21:01:46.019Z,2.72
2023-03-28T21:03:51.172Z,2.95
2023-03-28T21:05:53.242Z,2.60
2023-03-28T21:07:55.713Z,2.58
2023-03-28T21:09:59.616Z,2.15
2023-03-28T21:12:01.432Z,2.67
2023-03-28T21:14:04.587Z,2.90
2023-03-28T21:16:06.879Z,2.33
2023-03-28T21:18:09.747Z,2.63
2023-03-28T21:20:11.647Z,2.55
2023-03-28T21:22:13.447Z,3.33
2023-03-28T21:24:15.135Z,2.58
2023-03-28T21:26:18.841Z,2.45
2023-03-28T21:28:20.544Z,3.03
2023-03-28T21:30:22.212Z,2.60
2023-03-28T21:32:24.118Z,2.53
2023-03-28T21:34:30.828Z,2.35
2023-03-28T21:36:32.761Z,2.38
2023-03-28T21:38:35.647Z,2.40
2023-03-28T21:40:37.591Z,2.63
2023-03-28T21:42:39.248Z,2.47
2023-03-28T21:44:41.771Z,2.80
2023-03-28T21:46:43.803Z,3.38
2023-03-28T21:48:48.055Z,2.72
2023-03-28T21:50:53.856Z,2.70
2023-03-28T21:52:55.732Z,3.08
2023-03-28T21:54:57.406Z,3.30
2023-03-28T21:56:59.246Z,3.10
2023-03-28T21:59:01.064Z,3.08
2023-03-28T22:01:04.361Z,2.63
2023-03-28T22:03:06.960Z,2.75
2023-03-28T22:05:22.019Z,2.75
2023-03-28T22:07:30.283Z,3.40
2023-03-28T22:09:34.106Z,3.50
2023-03-28T22:11:35.807Z,2.97
2023-03-28T22:13:38.843Z,3.05
2023-03-28T22:15:50.428Z,3.35
2023-03-28T22:17:58.243Z,2.97
2023-03-28T22:20:02.289Z,3.20
2023-03-28T22:22:04.569Z,2.45
2023-03-28T22:24:13.481Z,2.85
2023-03-28T22:26:16.132Z,2.42
2023-03-28T22:28:19.102Z,2.75
2023-03-28T22:30:21.355Z,2.88
2023-03-28T22:32:23.988Z,2.88
2023-03-28T22:34:26.562Z,2.55
2023-03-28T22:36:28.909Z,2.75
2023-03-28T22:38:31.197Z,3.40
2023-03-28T22:40:33.470Z,2.65
2023-03-28T22:42:35.878Z,3.03
2023-03-28T22:44:46.325Z,2.83
2023-03-28T22:46:49.920Z,3.40
2023-03-28T22:48:58.765Z,3.25
2023-03-28T22:51:01.883Z,3.65
2023-03-28T22:53:04.685Z,3.10
2023-03-28T22:55:06.930Z,3.83
2023-03-28T22:57:08.786Z,3.35
2023-03-28T22:59:11.666Z,3.50
2023-03-28T23:01:13.425Z,3.65
2023-03-28T23:03:16.033Z,3.75
2023-03-28T23:05:18.187Z,3.60
2023-03-28T23:07:20.965Z,3.40
2023-03-28T23:09:25.936Z,3.97
2023-03-28T23:11:29.071Z,3.45
2023-03-28T23:13:30.764Z,4.38
2023-03-28T23:15:32.744Z,4.68
2023-03-28T23:17:34.493Z,4.22
2023-03-28T23:19:36.233Z,4.70
2023-03-28T23:21:38.077Z,3.78
2023-03-28T23:23:41.070Z,3.88
2023-03-28T23:25:44.702Z,4.13
2023-03-28T23:27:46.720Z,3.97
2023-03-28T23:29:48.446Z,4.28
2023-03-28T23:31:50.817Z,4.57
2023-03-28T23:33:52.489Z,4.70
2023-03-28T23:35:54.321Z,4.90
2023-03-28T23:37:56.062Z,4.68
2023-03-28T23:39:57.843Z,5.38
2023-03-28T23:41:59.680Z,5.03
2023-03-28T23:44:01.752Z,4.70
2023-03-28T23:46:04.509Z,5.85
2023-03-28T23:48:09.389Z,5.50
2023-03-28T23:50:11.842Z,5.90
2023-03-28T23:52:13.898Z,6.20
2023-03-28T23:54:18.144Z,5.85
2023-03-28T23:56:19.782Z,6.38
2023-03-28T23:58:21.643Z,6.80
